sensor_id;sensor_type;location;lat;lon;timestamp;pressure;altitude;pressure_sealevel;temperature;humidity
59558;BME280;45379;51.486;5.434;2022-07-18T00:00:15;102474.34;;;19.55;61.01
59558;BME280;45379;51.486;5.434;2022-07-18T00:02:40;102471.88;;;19.52;60.98
59558;BME280;45379;51.486;5.434;2022-07-18T00:05:07;102469.41;;;19.49;61.19
59558;BME280;45379;51.486;5.434;2022-07-18T00:07:33;102470.56;;;19.45;61.65
59558;BME280;45379;51.486;5.434;2022-07-18T00:09:59;102462.97;;;19.39;61.76
59558;BME280;45379;51.486;5.434;2022-07-18T00:12:25;102468.59;;;19.34;61.94
59558;BME280;45379;51.486;5.434;2022-07-18T00:14:50;102467.97;;;19.31;62.31
59558;BME280;45379;51.486;5.434;2022-07-18T00:17:16;102462.16;;;19.24;62.49
59558;BME280;45379;51.486;5.434;2022-07-18T00:19:42;102469.50;;;19.20;62.53
59558;BME280;45379;51.486;5.434;2022-07-18T00:22:08;102460.84;;;19.17;62.44
59558;BME280;45379;51.486;5.434;2022-07-18T00:24:34;102466.28;;;19.15;62.40
59558;BME280;45379;51.486;5.434;2022-07-18T00:27:03;102454.09;;;19.11;62.46
59558;BME280;45379;51.486;5.434;2022-07-18T00:29:30;102450.88;;;19.06;62.39
59558;BME280;45379;51.486;5.434;2022-07-18T00:31:56;102455.44;;;19.04;62.79
59558;BME280;45379;51.486;5.434;2022-07-18T00:34:21;102452.16;;;19.01;62.96
59558;BME280;45379;51.486;5.434;2022-07-18T00:36:47;102441.78;;;18.96;63.07
59558;BME280;45379;51.486;5.434;2022-07-18T00:39:13;102448.97;;;18.94;63.21
59558;BME280;45379;51.486;5.434;2022-07-18T00:41:39;102444.78;;;18.90;63.27
59558;BME280;45379;51.486;5.434;2022-07-18T00:44:05;102447.72;;;18.85;63.87
59558;BME280;45379;51.486;5.434;2022-07-18T00:46:31;102442.72;;;18.81;63.82
59558;BME280;45379;51.486;5.434;2022-07-18T00:48:56;102436.53;;;18.80;63.86
59558;BME280;45379;51.486;5.434;2022-07-18T00:51:22;102444.97;;;18.73;63.94
59558;BME280;45379;51.486;5.434;2022-07-18T00:53:49;102436.34;;;18.69;64.07
59558;BME280;45379;51.486;5.434;2022-07-18T00:56:20;102438.34;;;18.65;65.26
59558;BME280;45379;51.486;5.434;2022-07-18T00:58:47;102442.06;;;18.63;64.13
59558;BME280;45379;51.486;5.434;2022-07-18T01:01:13;102435.88;;;18.62;64.31
59558;BME280;45379;51.486;5.434;2022-07-18T01:03:57;102439.78;;;18.57;63.85
59558;BME280;45379;51.486;5.434;2022-07-18T01:06:23;102431.13;;;18.53;64.15
59558;BME280;45379;51.486;5.434;2022-07-18T01:08:50;102431.31;;;18.50;64.55
59558;BME280;45379;51.486;5.434;2022-07-18T01:11:16;102430.66;;;18.47;64.46
59558;BME280;45379;51.486;5.434;2022-07-18T01:13:42;102428.16;;;18.44;64.50
59558;BME280;45379;51.486;5.434;2022-07-18T01:16:08;102432.00;;;18.40;64.78
59558;BME280;45379;51.486;5.434;2022-07-18T01:18:34;102420.66;;;18.36;64.82
59558;BME280;45379;51.486;5.434;2022-07-18T01:21:00;102419.91;;;18.34;64.89
59558;BME280;45379;51.486;5.434;2022-07-18T01:23:25;102419.22;;;18.30;65.00
59558;BME280;45379;51.486;5.434;2022-07-18T01:25:51;102416.66;;;18.29;65.22
59558;BME280;45379;51.486;5.434;2022-07-18T01:28:17;102417.03;;;18.23;65.49
59558;BME280;45379;51.486;5.434;2022-07-18T01:30:43;102418.28;;;18.17;65.79
59558;BME280;45379;51.486;5.434;2022-07-18T01:33:09;102420.28;;;18.14;65.53
59558;BME280;45379;51.486;5.434;2022-07-18T01:35:35;102412.50;;;18.10;65.87
59558;BME280;45379;51.486;5.434;2022-07-18T01:38:02;102412.56;;;18.09;65.63
59558;BME280;45379;51.486;5.434;2022-07-18T01:40:29;102409.34;;;18.04;65.88
59558;BME280;45379;51.486;5.434;2022-07-18T01:42:55;102416.59;;;18.00;65.92
59558;BME280;45379;51.486;5.434;2022-07-18T01:45:21;102417.56;;;17.99;65.86
59558;BME280;45379;51.486;5.434;2022-07-18T01:47:48;102411.56;;;17.96;65.93
59558;BME280;45379;51.486;5.434;2022-07-18T01:50:14;102425.81;;;17.95;66.16
59558;BME280;45379;51.486;5.434;2022-07-18T01:52:40;102421.63;;;17.91;66.12
59558;BME280;45379;51.486;5.434;2022-07-18T01:55:09;102422.50;;;17.91;66.38
59558;BME280;45379;51.486;5.434;2022-07-18T01:57:35;102420.00;;;17.88;66.26
59558;BME280;45379;51.486;5.434;2022-07-18T02:00:01;102418.59;;;17.82;66.55
59558;BME280;45379;51.486;5.434;2022-07-18T02:02:27;102412.47;;;17.80;66.34
59558;BME280;45379;51.486;5.434;2022-07-18T02:04:52;102413.44;;;17.79;66.62
59558;BME280;45379;51.486;5.434;2022-07-18T02:07:25;102418.00;;;17.77;66.08
59558;BME280;45379;51.486;5.434;2022-07-18T02:09:51;102414.63;;;17.74;66.60
59558;BME280;45379;51.486;5.434;2022-07-18T02:12:17;102412.19;;;17.71;66.34
59558;BME280;45379;51.486;5.434;2022-07-18T02:14:43;102409.69;;;17.68;66.27
59558;BME280;45379;51.486;5.434;2022-07-18T02:17:09;102408.16;;;17.64;66.33
59558;BME280;45379;51.486;5.434;2022-07-18T02:19:35;102403.00;;;17.61;66.75
59558;BME280;45379;51.486;5.434;2022-07-18T02:22:01;102395.31;;;17.56;67.33
59558;BME280;45379;51.486;5.434;2022-07-18T02:24:27;102393.88;;;17.50;67.48
59558;BME280;45379;51.486;5.434;2022-07-18T02:26:53;102396.63;;;17.49;67.47
59558;BME280;45379;51.486;5.434;2022-07-18T02:29:18;102394.03;;;17.47;67.83
59558;BME280;45379;51.486;5.434;2022-07-18T02:31:44;102385.31;;;17.45;67.90
59558;BME280;45379;51.486;5.434;2022-07-18T02:34:10;102397.94;;;17.42;68.23
59558;BME280;45379;51.486;5.434;2022-07-18T02:36:38;102390.03;;;17.40;67.67
59558;BME280;45379;51.486;5.434;2022-07-18T02:39:06;102385.75;;;17.38;68.02
59558;BME280;45379;51.486;5.434;2022-07-18T02:41:32;102384.16;;;17.35;67.85
59558;BME280;45379;51.486;5.434;2022-07-18T02:43:58;102393.94;;;17.35;67.79
59558;BME280;45379;51.486;5.434;2022-07-18T02:46:24;102382.50;;;17.33;67.63
59558;BME280;45379;51.486;5.434;2022-07-18T02:48:50;102386.09;;;17.32;67.58
59558;BME280;45379;51.486;5.434;2022-07-18T02:51:16;102381.94;;;17.27;67.93
59558;BME280;45379;51.486;5.434;2022-07-18T02:53:42;102382.09;;;17.24;68.02
59558;BME280;45379;51.486;5.434;2022-07-18T02:56:08;102383.03;;;17.23;67.82
59558;BME280;45379;51.486;5.434;2022-07-18T02:58:33;102377.81;;;17.22;67.57
59558;BME280;45379;51.486;5.434;2022-07-18T03:00:59;102388.59;;;17.19;67.58
59558;BME280;45379;51.486;5.434;2022-07-18T03:03:25;102392.22;;;17.18;67.91
59558;BME280;45379;51.486;5.434;2022-07-18T03:05:51;102388.81;;;17.16;67.86
59558;BME280;45379;51.486;5.434;2022-07-18T03:08:17;102385.38;;;17.14;67.95
59558;BME280;45379;51.486;5.434;2022-07-18T03:10:43;102387.44;;;17.09;68.24
59558;BME280;45379;51.486;5.434;2022-07-18T03:13:09;102386.75;;;17.05;68.40
59558;BME280;45379;51.486;5.434;2022-07-18T03:15:36;102374.41;;;17.04;68.18
59558;BME280;45379;51.486;5.434;2022-07-18T03:18:02;102372.78;;;17.01;68.33
59558;BME280;45379;51.486;5.434;2022-07-18T03:20:28;102359.63;;;16.98;68.74
59558;BME280;45379;51.486;5.434;2022-07-18T03:22:54;102348.34;;;16.95;68.85
59558;BME280;45379;51.486;5.434;2022-07-18T03:25:20;102355.34;;;16.96;68.56
59558;BME280;45379;51.486;5.434;2022-07-18T03:27:45;102355.19;;;16.99;68.79
59558;BME280;45379;51.486;5.434;2022-07-18T03:30:12;102355.19;;;16.99;68.59
59558;BME280;45379;51.486;5.434;2022-07-18T03:32:38;102359.59;;;17.00;68.39
59558;BME280;45379;51.486;5.434;2022-07-18T03:35:05;102356.94;;;17.00;68.05
59558;BME280;45379;51.486;5.434;2022-07-18T03:37:31;102352.59;;;16.97;68.27
59558;BME280;45379;51.486;5.434;2022-07-18T03:39:57;102348.34;;;16.95;68.41
59558;BME280;45379;51.486;5.434;2022-07-18T03:42:22;102355.34;;;16.96;68.15
59558;BME280;45379;51.486;5.434;2022-07-18T03:44:48;102345.78;;;16.93;68.63
59558;BME280;45379;51.486;5.434;2022-07-18T03:47:14;102339.88;;;16.88;68.57
59558;BME280;45379;51.486;5.434;2022-07-18T03:49:40;102349.53;;;16.89;68.40
59558;BME280;45379;51.486;5.434;2022-07-18T03:52:06;102348.69;;;16.89;68.62
59558;BME280;45379;51.486;5.434;2022-07-18T03:54:31;102354.09;;;16.87;68.54
59558;BME280;45379;51.486;5.434;2022-07-18T03:56:57;102352.44;;;16.85;68.43
59558;BME280;45379;51.486;5.434;2022-07-18T03:59:23;102354.34;;;16.83;68.89
59558;BME280;45379;51.486;5.434;2022-07-18T04:01:49;102350.06;;;16.80;68.88
59558;BME280;45379;51.486;5.434;2022-07-18T04:04:15;102345.72;;;16.79;68.93
59558;BME280;45379;51.486;5.434;2022-07-18T04:06:41;102350.22;;;16.77;69.60
59558;BME280;45379;51.486;5.434;2022-07-18T04:09:06;102356.38;;;16.78;69.50
59558;BME280;45379;51.486;5.434;2022-07-18T04:11:32;102347.50;;;16.79;69.02
59558;BME280;45379;51.486;5.434;2022-07-18T04:13:58;102345.75;;;16.78;69.27
59558;BME280;45379;51.486;5.434;2022-07-18T04:16:24;102351.06;;;16.78;69.51
59558;BME280;45379;51.486;5.434;2022-07-18T04:18:50;102350.22;;;16.77;69.42
59558;BME280;45379;51.486;5.434;2022-07-18T04:21:16;102343.03;;;16.79;69.27
59558;BME280;45379;51.486;5.434;2022-07-18T04:23:42;102339.53;;;16.79;69.86
59558;BME280;45379;51.486;5.434;2022-07-18T04:26:08;102332.47;;;16.78;69.43
59558;BME280;45379;51.486;5.434;2022-07-18T04:28:35;102334.03;;;16.82;69.37
59558;BME280;45379;51.486;5.434;2022-07-18T04:31:01;102332.25;;;16.82;70.28
59558;BME280;45379;51.486;5.434;2022-07-18T04:33:27;102333.78;;;16.86;69.89
59558;BME280;45379;51.486;5.434;2022-07-18T04:35:53;102331.91;;;16.88;69.95
59558;BME280;45379;51.486;5.434;2022-07-18T04:38:18;102328.19;;;16.91;69.84
59558;BME280;45379;51.486;5.434;2022-07-18T04:40:44;102324.44;;;16.95;69.48
59558;BME280;45379;51.486;5.434;2022-07-18T04:43:10;102318.91;;;16.99;69.70
59558;BME280;45379;51.486;5.434;2022-07-18T04:45:36;102321.25;;;17.04;70.04
59558;BME280;45379;51.486;5.434;2022-07-18T04:48:04;102324.63;;;17.08;70.44
59558;BME280;45379;51.486;5.434;2022-07-18T04:50:31;102329.66;;;17.12;69.74
59558;BME280;45379;51.486;5.434;2022-07-18T04:52:57;102325.03;;;17.16;69.05
59558;BME280;45379;51.486;5.434;2022-07-18T04:55:25;102325.34;;;17.25;68.80
59558;BME280;45379;51.486;5.434;2022-07-18T04:57:52;102320.34;;;17.35;68.40
59558;BME280;45379;51.486;5.434;2022-07-18T05:00:24;102334.69;;;17.47;68.84
59558;BME280;45379;51.486;5.434;2022-07-18T05:02:53;102328.00;;;17.55;67.36
59558;BME280;45379;51.486;5.434;2022-07-18T05:05:20;102334.56;;;17.64;66.66
59558;BME280;45379;51.486;5.434;2022-07-18T05:07:48;102326.00;;;17.73;66.25
59558;BME280;45379;51.486;5.434;2022-07-18T05:10:18;102329.00;;;17.83;66.49
59558;BME280;45379;51.486;5.434;2022-07-18T05:12:47;102329.28;;;17.93;65.80
59558;BME280;45379;51.486;5.434;2022-07-18T05:15:17;102329.31;;;18.07;66.28
59558;BME280;45379;51.486;5.434;2022-07-18T05:17:44;102333.41;;;18.13;65.68
59558;BME280;45379;51.486;5.434;2022-07-18T05:20:13;102330.53;;;18.16;65.79
59558;BME280;45379;51.486;5.434;2022-07-18T05:22:41;102329.41;;;18.20;65.30
59558;BME280;45379;51.486;5.434;2022-07-18T05:25:08;102331.69;;;18.26;65.36
59558;BME280;45379;51.486;5.434;2022-07-18T05:27:35;102329.50;;;18.32;64.74
59558;BME280;45379;51.486;5.434;2022-07-18T05:30:03;102332.41;;;18.42;64.34
59558;BME280;45379;51.486;5.434;2022-07-18T05:32:29;102336.22;;;18.52;64.05
59558;BME280;45379;51.486;5.434;2022-07-18T05:35:05;102331.16;;;18.62;64.98
59558;BME280;45379;51.486;5.434;2022-07-18T05:37:35;102327.97;;;18.70;63.45
59558;BME280;45379;51.486;5.434;2022-07-18T05:40:04;102324.63;;;18.80;63.41
59558;BME280;45379;51.486;5.434;2022-07-18T05:42:30;102331.16;;;18.89;63.00
59558;BME280;45379;51.486;5.434;2022-07-18T05:44:55;102326.00;;;19.00;62.74
59558;BME280;45379;51.486;5.434;2022-07-18T05:47:21;102324.22;;;19.13;62.32
59558;BME280;45379;51.486;5.434;2022-07-18T05:49:47;102319.91;;;19.25;61.91
59558;BME280;45379;51.486;5.434;2022-07-18T05:52:13;102323.56;;;19.37;61.35
59558;BME280;45379;51.486;5.434;2022-07-18T05:54:39;102324.63;;;19.47;61.28
59558;BME280;45379;51.486;5.434;2022-07-18T05:57:05;102320.38;;;19.57;61.25
59558;BME280;45379;51.486;5.434;2022-07-18T05:59:30;102322.19;;;19.69;61.17
59558;BME280;45379;51.486;5.434;2022-07-18T06:01:56;102321.22;;;19.83;60.50
59558;BME280;45379;51.486;5.434;2022-07-18T06:04:22;102314.97;;;19.97;60.47
59558;BME280;45379;51.486;5.434;2022-07-18T06:06:48;102311.66;;;20.06;60.18
59558;BME280;45379;51.486;5.434;2022-07-18T06:09:16;102314.19;;;20.20;59.57
59558;BME280;45379;51.486;5.434;2022-07-18T06:11:42;102315.22;;;20.31;59.34
59558;BME280;45379;51.486;5.434;2022-07-18T06:14:08;102316.38;;;20.39;59.87
59558;BME280;45379;51.486;5.434;2022-07-18T06:16:34;102316.47;;;20.50;59.00
59558;BME280;45379;51.486;5.434;2022-07-18T06:19:00;102325.91;;;20.67;58.84
59558;BME280;45379;51.486;5.434;2022-07-18T06:21:26;102321.75;;;20.76;59.00
59558;BME280;45379;51.486;5.434;2022-07-18T06:23:52;102310.38;;;20.85;58.80
59558;BME280;45379;51.486;5.434;2022-07-18T06:26:18;102304.34;;;20.94;58.61
59558;BME280;45379;51.486;5.434;2022-07-18T06:28:43;102298.94;;;21.07;58.49
59558;BME280;45379;51.486;5.434;2022-07-18T06:31:09;102294.69;;;21.16;57.49
59558;BME280;45379;51.486;5.434;2022-07-18T06:33:37;102301.94;;;21.26;57.88
59558;BME280;45379;51.486;5.434;2022-07-18T06:36:04;102293.19;;;21.35;57.41
59558;BME280;45379;51.486;5.434;2022-07-18T06:38:31;102292.84;;;21.40;57.10
59558;BME280;45379;51.486;5.434;2022-07-18T06:40:57;102298.22;;;21.51;56.91
59558;BME280;45379;51.486;5.434;2022-07-18T06:43:22;102287.94;;;21.58;56.75
59558;BME280;45379;51.486;5.434;2022-07-18T06:45:49;102288.78;;;21.70;57.10
59558;BME280;45379;51.486;5.434;2022-07-18T06:48:17;102282.47;;;21.82;56.72
59558;BME280;45379;51.486;5.434;2022-07-18T06:50:43;102287.84;;;21.93;56.04
59558;BME280;45379;51.486;5.434;2022-07-18T06:53:09;102282.47;;;22.04;56.47
59558;BME280;45379;51.486;5.434;2022-07-18T06:55:35;102283.53;;;22.13;55.83
59558;BME280;45379;51.486;5.434;2022-07-18T06:58:01;102281.13;;;22.21;55.66
59558;BME280;45379;51.486;5.434;2022-07-18T07:00:27;102279.25;;;22.33;54.63
59558;BME280;45379;51.486;5.434;2022-07-18T07:02:53;102275.50;;;22.46;54.44
59558;BME280;45379;51.486;5.434;2022-07-18T07:05:20;102281.56;;;22.60;54.43
59558;BME280;45379;51.486;5.434;2022-07-18T07:07:47;102279.84;;;22.70;54.66
59558;BME280;45379;51.486;5.434;2022-07-18T07:10:15;102277.38;;;22.78;54.75
59558;BME280;45379;51.486;5.434;2022-07-18T07:12:45;102281.56;;;22.92;54.36
59558;BME280;45379;51.486;5.434;2022-07-18T07:15:12;102274.19;;;23.05;54.05
59558;BME280;45379;51.486;5.434;2022-07-18T07:17:38;102284.03;;;23.16;53.46
59558;BME280;45379;51.486;5.434;2022-07-18T07:20:06;102286.69;;;23.27;54.02
59558;BME280;45379;51.486;5.434;2022-07-18T07:22:48;102279.84;;;23.44;52.48
59558;BME280;45379;51.486;5.434;2022-07-18T07:25:15;102285.00;;;23.57;52.55
59558;BME280;45379;51.486;5.434;2022-07-18T07:27:42;102283.97;;;23.69;53.38
59558;BME280;45379;51.486;5.434;2022-07-18T07:30:09;102281.78;;;23.83;52.59
59558;BME280;45379;51.486;5.434;2022-07-18T07:32:40;102279.88;;;23.95;52.63
59558;BME280;45379;51.486;5.434;2022-07-18T07:35:09;102281.75;;;24.04;51.93
59558;BME280;45379;51.486;5.434;2022-07-18T07:37:49;102282.06;;;24.11;50.35
59558;BME280;45379;51.486;5.434;2022-07-18T07:40:15;102277.00;;;24.27;51.67
59558;BME280;45379;51.486;5.434;2022-07-18T07:42:42;102280.56;;;24.38;51.03
59558;BME280;45379;51.486;5.434;2022-07-18T07:45:08;102280.31;;;24.50;50.79
59558;BME280;45379;51.486;5.434;2022-07-18T07:47:36;102274.56;;;24.65;50.96
59558;BME280;45379;51.486;5.434;2022-07-18T07:50:03;102281.47;;;24.77;50.46
59558;BME280;45379;51.486;5.434;2022-07-18T07:52:29;102279.38;;;24.90;50.31
59558;BME280;45379;51.486;5.434;2022-07-18T07:54:55;102266.78;;;25.00;50.36
59558;BME280;45379;51.486;5.434;2022-07-18T07:57:21;102261.53;;;25.08;49.81
59558;BME280;45379;51.486;5.434;2022-07-18T07:59:47;102254.44;;;25.17;49.78
59558;BME280;45379;51.486;5.434;2022-07-18T08:02:14;102250.47;;;25.21;48.73
59558;BME280;45379;51.486;5.434;2022-07-18T08:04:41;102245.34;;;25.28;48.76
59558;BME280;45379;51.486;5.434;2022-07-18T08:07:07;102238.28;;;25.36;49.14
59558;BME280;45379;51.486;5.434;2022-07-18T08:09:34;102242.09;;;25.43;48.79
59558;BME280;45379;51.486;5.434;2022-07-18T08:12:00;102243.59;;;25.56;49.20
59558;BME280;45379;51.486;5.434;2022-07-18T08:14:25;102245.81;;;25.70;49.36
59558;BME280;45379;51.486;5.434;2022-07-18T08:16:51;102241.38;;;25.79;48.51
59558;BME280;45379;51.486;5.434;2022-07-18T08:19:17;102236.94;;;25.87;48.33
59558;BME280;45379;51.486;5.434;2022-07-18T08:21:43;102233.50;;;25.95;48.30
59558;BME280;45379;51.486;5.434;2022-07-18T08:24:09;102226.09;;;26.07;48.38
59558;BME280;45379;51.486;5.434;2022-07-18T08:26:34;102223.19;;;26.18;47.85
59558;BME280;45379;51.486;5.434;2022-07-18T08:29:05;102220.44;;;26.27;48.12
59558;BME280;45379;51.486;5.434;2022-07-18T08:31:31;102220.06;;;26.40;48.00
59558;BME280;45379;51.486;5.434;2022-07-18T08:33:57;102220.38;;;26.55;48.11
59558;BME280;45379;51.486;5.434;2022-07-18T08:36:23;102219.31;;;26.66;48.55
59558;BME280;45379;51.486;5.434;2022-07-18T08:38:50;102225.31;;;26.77;48.71
59558;BME280;45379;51.486;5.434;2022-07-18T08:41:17;102235.19;;;26.87;48.55
59558;BME280;45379;51.486;5.434;2022-07-18T08:43:46;102224.31;;;26.96;46.64
59558;BME280;45379;51.486;5.434;2022-07-18T08:46:12;102237.56;;;27.07;48.62
59558;BME280;45379;51.486;5.434;2022-07-18T08:48:39;102229.50;;;27.16;48.24
59558;BME280;45379;51.486;5.434;2022-07-18T08:51:08;102222.31;;;27.24;47.77
59558;BME280;45379;51.486;5.434;2022-07-18T08:53:36;102232.13;;;27.33;47.61
59558;BME280;45379;51.486;5.434;2022-07-18T08:56:04;102232.44;;;27.48;47.89
59558;BME280;45379;51.486;5.434;2022-07-18T08:58:30;102228.28;;;27.62;47.60
59558;BME280;45379;51.486;5.434;2022-07-18T09:00:56;102222.28;;;27.76;47.69
59558;BME280;45379;51.486;5.434;2022-07-18T09:03:24;102220.59;;;27.83;47.44
59558;BME280;45379;51.486;5.434;2022-07-18T09:06:11;102223.69;;;27.97;45.63
59558;BME280;45379;51.486;5.434;2022-07-18T09:08:40;102221.59;;;28.08;47.01
59558;BME280;45379;51.486;5.434;2022-07-18T09:11:11;102219.44;;;28.20;47.77
59558;BME280;45379;51.486;5.434;2022-07-18T09:13:40;102215.06;;;28.35;47.98
59558;BME280;45379;51.486;5.434;2022-07-18T09:16:09;102221.50;;;28.51;47.92
59558;BME280;45379;51.486;5.434;2022-07-18T09:18:38;102225.22;;;28.50;46.69
59558;BME280;45379;51.486;5.434;2022-07-18T09:23:36;102220.53;;;28.76;46.39
59558;BME280;45379;51.486;5.434;2022-07-18T09:26:03;102223.41;;;28.91;47.00
59558;BME280;45379;51.486;5.434;2022-07-18T09:28:51;102229.84;;;28.98;41.98
59558;BME280;45379;51.486;5.434;2022-07-18T09:31:23;102221.22;;;29.03;45.36
59558;BME280;45379;51.486;5.434;2022-07-18T09:33:57;102226.97;;;29.24;45.63
59558;BME280;45379;51.486;5.434;2022-07-18T09:36:25;102232.34;;;29.32;46.58
59558;BME280;45379;51.486;5.434;2022-07-18T09:38:51;102221.31;;;29.42;46.80
59558;BME280;45379;51.486;5.434;2022-07-18T09:41:23;102223.81;;;29.60;44.92
59558;BME280;45379;51.486;5.434;2022-07-18T09:43:50;102229.22;;;29.60;46.31
59558;BME280;45379;51.486;5.434;2022-07-18T09:46:16;102221.91;;;29.68;46.33
59558;BME280;45379;51.486;5.434;2022-07-18T09:48:42;102221.41;;;29.73;45.95
59558;BME280;45379;51.486;5.434;2022-07-18T09:51:08;102219.66;;;29.80;45.77
59558;BME280;45379;51.486;5.434;2022-07-18T09:53:37;102224.22;;;29.88;45.20
59558;BME280;45379;51.486;5.434;2022-07-18T09:56:13;102207.56;;;29.99;43.33
59558;BME280;45379;51.486;5.434;2022-07-18T09:58:42;102222.53;;;30.18;44.38
59558;BME280;45379;51.486;5.434;2022-07-18T10:01:16;102215.03;;;30.28;45.45
59558;BME280;45379;51.486;5.434;2022-07-18T10:03:42;102216.84;;;30.36;45.20
59558;BME280;45379;51.486;5.434;2022-07-18T10:06:10;102208.31;;;30.47;44.58
59558;BME280;45379;51.486;5.434;2022-07-18T10:08:36;102210.09;;;30.54;45.86
59558;BME280;45379;51.486;5.434;2022-07-18T10:11:06;102198.00;;;30.65;44.22
59558;BME280;45379;51.486;5.434;2022-07-18T10:13:33;102205.59;;;30.70;45.02
59558;BME280;45379;51.486;5.434;2022-07-18T10:15:59;102208.34;;;30.84;45.00
59558;BME280;45379;51.486;5.434;2022-07-18T10:18:29;102199.63;;;30.89;42.87
59558;BME280;45379;51.486;5.434;2022-07-18T10:21:09;102204.31;;;30.95;40.39
59558;BME280;45379;51.486;5.434;2022-07-18T10:23:44;102196.22;;;31.10;42.35
59558;BME280;45379;51.486;5.434;2022-07-18T10:26:23;102200.72;;;31.18;41.60
59558;BME280;45379;51.486;5.434;2022-07-18T10:31:30;102189.91;;;31.32;43.98
59558;BME280;45379;51.486;5.434;2022-07-18T10:34:09;102200.06;;;31.45;40.33
59558;BME280;45379;51.486;5.434;2022-07-18T10:39:19;102196.81;;;31.50;43.42
59558;BME280;45379;51.486;5.434;2022-07-18T10:47:08;102185.56;;;31.82;38.57
59558;BME280;45379;51.486;5.434;2022-07-18T11:00:37;102179.94;;;32.05;40.42
59558;BME280;45379;51.486;5.434;2022-07-18T11:03:06;102180.25;;;32.10;41.79
59558;BME280;45379;51.486;5.434;2022-07-18T11:05:35;102182.22;;;32.16;42.79
59558;BME280;45379;51.486;5.434;2022-07-18T11:15:55;102171.63;;;32.49;42.36
59558;BME280;45379;51.486;5.434;2022-07-18T11:18:22;102167.53;;;32.60;42.44
59558;BME280;45379;51.486;5.434;2022-07-18T11:20:48;102170.84;;;32.77;42.98
59558;BME280;45379;51.486;5.434;2022-07-18T11:23:25;102168.41;;;32.89;39.72
59558;BME280;45379;51.486;5.434;2022-07-18T11:25:55;102158.81;;;32.93;40.71
59558;BME280;45379;51.486;5.434;2022-07-18T11:28:22;102151.50;;;32.93;36.48
59558;BME280;45379;51.486;5.434;2022-07-18T11:31:06;102161.53;;;32.93;37.09
59558;BME280;45379;51.486;5.434;2022-07-18T11:33:46;102166.19;;;32.99;36.75
59558;BME280;45379;51.486;5.434;2022-07-18T11:36:16;102161.38;;;33.01;40.90
59558;BME280;45379;51.486;5.434;2022-07-18T11:38:54;102155.56;;;33.11;37.83
59558;BME280;45379;51.486;5.434;2022-07-18T11:41:21;102144.25;;;33.07;41.03
59558;BME280;45379;51.486;5.434;2022-07-18T11:43:52;102157.19;;;33.05;39.07
59558;BME280;45379;51.486;5.434;2022-07-18T11:46:21;102149.59;;;33.22;41.11
59558;BME280;45379;51.486;5.434;2022-07-18T11:49:00;102155.28;;;33.27;38.75
59558;BME280;45379;51.486;5.434;2022-07-18T11:51:35;102151.72;;;33.26;38.27
59558;BME280;45379;51.486;5.434;2022-07-18T11:54:03;102144.88;;;33.44;41.96
59558;BME280;45379;51.486;5.434;2022-07-18T11:56:29;102146.78;;;33.50;41.59
59558;BME280;45379;51.486;5.434;2022-07-18T11:58:55;102141.50;;;33.35;40.62
59558;BME280;45379;51.486;5.434;2022-07-18T12:01:33;102141.72;;;33.40;36.74
59558;BME280;45379;51.486;5.434;2022-07-18T12:03:59;102136.13;;;33.55;41.08
59558;BME280;45379;51.486;5.434;2022-07-18T12:06:25;102130.88;;;33.60;40.63
59558;BME280;45379;51.486;5.434;2022-07-18T12:08:57;102129.69;;;33.69;38.40
59558;BME280;45379;51.486;5.434;2022-07-18T12:11:32;102131.81;;;33.80;39.54
59558;BME280;45379;51.486;5.434;2022-07-18T12:16:43;102120.56;;;34.03;38.71
59558;BME280;45379;51.486;5.434;2022-07-18T12:19:13;102128.94;;;34.08;40.86
59558;BME280;45379;51.486;5.434;2022-07-18T12:27:19;102113.44;;;34.35;35.91
59558;BME280;45379;51.486;5.434;2022-07-18T12:30:08;102116.19;;;34.42;35.41
59558;BME280;45379;51.486;5.434;2022-07-18T12:32:59;102103.81;;;34.40;37.89
59558;BME280;45379;51.486;5.434;2022-07-18T12:35:36;102106.72;;;34.51;37.15
59558;BME280;45379;51.486;5.434;2022-07-18T12:38:16;102103.97;;;34.64;37.22
59558;BME280;45379;51.486;5.434;2022-07-18T12:43:31;102100.00;;;34.54;32.49
59558;BME280;45379;51.486;5.434;2022-07-18T12:46:00;102105.47;;;34.54;37.49
59558;BME280;45379;51.486;5.434;2022-07-18T12:48:30;102101.91;;;34.60;35.70
59558;BME280;45379;51.486;5.434;2022-07-18T12:51:00;102096.00;;;34.56;38.40
59558;BME280;45379;51.486;5.434;2022-07-18T12:53:28;102105.88;;;34.64;39.18
59558;BME280;45379;51.486;5.434;2022-07-18T12:55:54;102099.19;;;34.73;39.11
59558;BME280;45379;51.486;5.434;2022-07-18T12:58:20;102092.66;;;34.74;39.11
59558;BME280;45379;51.486;5.434;2022-07-18T13:00:47;102082.34;;;34.76;39.12
59558;BME280;45379;51.486;5.434;2022-07-18T13:03:14;102082.31;;;34.89;39.60
59558;BME280;45379;51.486;5.434;2022-07-18T13:05:43;102078.72;;;35.02;37.16
59558;BME280;45379;51.486;5.434;2022-07-18T13:08:09;102078.13;;;34.94;39.00
59558;BME280;45379;51.486;5.434;2022-07-18T13:10:40;102068.88;;;34.88;36.66
59558;BME280;45379;51.486;5.434;2022-07-18T13:13:08;102074.31;;;35.01;38.80
59558;BME280;45379;51.486;5.434;2022-07-18T13:15:34;102071.09;;;35.11;38.72
59558;BME280;45379;51.486;5.434;2022-07-18T13:18:01;102066.44;;;35.18;38.79
59558;BME280;45379;51.486;5.434;2022-07-18T13:20:27;102062.44;;;35.20;39.01
59558;BME280;45379;51.486;5.434;2022-07-18T13:22:53;102059.47;;;35.35;39.46
59558;BME280;45379;51.486;5.434;2022-07-18T13:25:21;102060.63;;;35.53;38.61
59558;BME280;45379;51.486;5.434;2022-07-18T13:27:49;102056.59;;;35.55;38.34
59558;BME280;45379;51.486;5.434;2022-07-18T13:30:15;102056.03;;;35.46;38.24
59558;BME280;45379;51.486;5.434;2022-07-18T13:32:41;102062.75;;;35.51;38.33
59558;BME280;45379;51.486;5.434;2022-07-18T13:35:11;102055.44;;;35.44;37.34